createdAt,value
2022-10-22T00:01:01.701Z,11.52
2022-10-22T00:03:28.299Z,7.30
2022-10-22T00:05:54.932Z,7.50
2022-10-22T00:08:21.705Z,6.43
2022-10-22T00:10:48.240Z,5.22
2022-10-22T00:13:14.820Z,6.95
2022-10-22T00:15:41.520Z,5.35
2022-10-22T00:18:08.135Z,5.95
2022-10-22T00:20:35.196Z,5.72
2022-10-22T00:23:01.826Z,6.53
2022-10-22T00:25:28.421Z,5.90
2022-10-22T00:27:55.009Z,8.00
2022-10-22T00:30:21.680Z,7.38
2022-10-22T00:32:48.276Z,6.22
2022-10-22T00:35:14.932Z,7.45
2022-10-22T00:37:41.479Z,8.27
2022-10-22T00:40:08.925Z,4.78
2022-10-22T00:42:35.522Z,7.13
2022-10-22T00:45:11.161Z,8.15
2022-10-22T00:47:42.643Z,6.72
2022-10-22T00:50:15.001Z,5.43
2022-10-22T00:52:41.851Z,9.43
2022-10-22T00:55:09.012Z,5.07
2022-10-22T00:57:36.172Z,8.57
2022-10-22T01:00:05.002Z,7.45
2022-10-22T01:02:31.678Z,6.65
2022-10-22T01:04:58.290Z,6.05
2022-10-22T01:07:26.086Z,6.97
2022-10-22T01:10:13.969Z,8.60
2022-10-22T01:13:07.773Z,10.68
2022-10-22T01:15:59.249Z,6.60
2022-10-22T01:18:41.499Z,5.35
2022-10-22T01:21:15.629Z,9.75
2022-10-22T01:23:54.379Z,11.30
2022-10-22T01:26:42.625Z,7.47
2022-10-22T01:29:29.620Z,9.98
2022-10-22T01:32:11.401Z,7.32
2022-10-22T01:34:40.229Z,7.38
2022-10-22T01:37:07.025Z,7.40
2022-10-22T01:39:34.440Z,6.95
2022-10-22T01:42:01.044Z,7.43
2022-10-22T01:44:32.623Z,7.80
2022-10-22T01:47:15.566Z,7.78
2022-10-22T01:49:44.832Z,6.80
2022-10-22T01:52:47.069Z,6.03
2022-10-22T01:55:22.128Z,4.93
2022-10-22T01:58:09.359Z,5.18
2022-10-22T02:00:38.953Z,10.23
2022-10-22T02:03:06.524Z,7.72
2022-10-22T02:05:41.096Z,7.07
2022-10-22T02:08:31.597Z,7.03
2022-10-22T02:10:59.068Z,7.85
2022-10-22T02:13:30.110Z,8.27
2022-10-22T02:15:57.258Z,5.43
2022-10-22T02:18:28.411Z,9.10
2022-10-22T02:20:56.027Z,9.30
2022-10-22T02:23:23.115Z,5.57
2022-10-22T02:25:54.049Z,7.00
2022-10-22T02:28:34.406Z,6.00
2022-10-22T02:31:15.419Z,5.85
2022-10-22T02:33:47.944Z,6.63
2022-10-22T02:36:15.915Z,7.00
2022-10-22T02:38:42.957Z,8.52
2022-10-22T02:41:09.999Z,7.90
2022-10-22T02:43:55.736Z,6.47
2022-10-22T02:46:23.619Z,8.35
2022-10-22T02:48:50.224Z,6.18
2022-10-22T02:51:16.875Z,6.93
2022-10-22T02:53:43.469Z,6.38
2022-10-22T02:56:10.052Z,6.75
2022-10-22T02:58:36.619Z,7.57
2022-10-22T03:01:03.314Z,7.07
2022-10-22T03:03:29.928Z,6.57
2022-10-22T03:05:56.493Z,6.68
2022-10-22T03:08:23.155Z,10.63
2022-10-22T03:10:49.738Z,6.22
2022-10-22T03:13:16.308Z,5.45
2022-10-22T03:15:42.910Z,6.57
2022-10-22T03:18:09.678Z,6.90
2022-10-22T03:20:36.283Z,9.05
2022-10-22T03:23:03.520Z,5.28
2022-10-22T03:25:34.479Z,5.93
2022-10-22T03:28:07.712Z,7.75
2022-10-22T03:30:34.324Z,7.88
2022-10-22T03:33:00.860Z,7.03
2022-10-22T03:35:27.442Z,6.78
2022-10-22T03:37:54.484Z,6.60
2022-10-22T03:40:21.248Z,6.53
2022-10-22T03:42:48.006Z,6.38
2022-10-22T03:45:14.582Z,7.60
2022-10-22T03:47:41.426Z,7.13
2022-10-22T03:50:08.969Z,6.32
2022-10-22T03:52:39.708Z,6.82
2022-10-22T03:55:09.144Z,8.07
2022-10-22T03:57:35.791Z,7.78
2022-10-22T04:00:02.472Z,15.48
2022-10-22T04:02:29.057Z,7.53
2022-10-22T04:04:55.620Z,6.78
2022-10-22T04:07:22.224Z,7.65
2022-10-22T04:09:48.822Z,7.57
2022-10-22T04:12:15.410Z,5.28
2022-10-22T04:14:41.976Z,8.23
2022-10-22T04:17:08.513Z,6.70
2022-10-22T04:19:35.813Z,6.50
2022-10-22T04:22:02.362Z,8.13
2022-10-22T04:24:31.027Z,8.13
2022-10-22T04:26:57.706Z,6.57
2022-10-22T04:29:25.051Z,7.65
2022-10-22T04:31:51.865Z,8.32
2022-10-22T04:34:18.464Z,7.55
2022-10-22T04:36:44.996Z,9.07
2022-10-22T04:39:11.581Z,6.97
2022-10-22T04:41:39.383Z,9.23
2022-10-22T04:44:09.891Z,12.32
2022-10-22T04:46:40.085Z,10.32
2022-10-22T04:49:06.684Z,8.05
2022-10-22T04:51:33.263Z,9.93
2022-10-22T04:53:59.888Z,8.38
2022-10-22T04:56:29.785Z,7.63
2022-10-22T04:58:58.952Z,8.52
2022-10-22T05:01:28.289Z,11.80
2022-10-22T05:03:57.019Z,11.68
2022-10-22T05:08:56.442Z,9.60
2022-10-22T05:11:25.318Z,9.35
2022-10-22T05:13:51.855Z,10.05
2022-10-22T05:16:18.430Z,7.00
2022-10-22T05:18:45.557Z,8.88
2022-10-22T05:21:14.525Z,7.63
2022-10-22T05:23:41.415Z,15.52
2022-10-22T05:26:09.952Z,7.47
2022-10-22T05:31:04.665Z,8.27
2022-10-22T05:33:32.115Z,7.55
2022-10-22T05:35:59.171Z,12.90
2022-10-22T05:38:25.824Z,8.88
2022-10-22T05:41:04.343Z,6.57
2022-10-22T05:46:02.990Z,5.63
2022-10-22T05:48:29.958Z,6.57
2022-10-22T05:50:56.795Z,6.70
2022-10-22T05:53:23.434Z,7.97
2022-10-22T05:55:50.025Z,6.53
2022-10-22T05:58:16.584Z,9.13
2022-10-22T06:00:43.171Z,7.07
2022-10-22T06:03:09.747Z,8.52
2022-10-22T06:05:37.280Z,6.32
2022-10-22T06:08:04.490Z,7.45
2022-10-22T06:10:31.458Z,6.55
2022-10-22T06:12:58.069Z,8.57
2022-10-22T06:15:24.620Z,8.32
2022-10-22T06:17:51.192Z,6.68
2022-10-22T06:20:17.813Z,9.18
2022-10-22T06:22:44.437Z,6.78
2022-10-22T06:25:12.507Z,6.80
2022-10-22T06:27:39.128Z,12.45
2022-10-22T06:30:06.286Z,7.68
2022-10-22T06:32:32.853Z,11.25
2022-10-22T06:34:59.452Z,7.78
2022-10-22T06:37:26.035Z,9.75
2022-10-22T06:39:52.572Z,7.10
2022-10-22T06:42:19.183Z,7.00
2022-10-22T06:44:45.769Z,6.40
2022-10-22T06:47:12.370Z,8.70
2022-10-22T06:49:38.992Z,6.95
2022-10-22T06:52:05.623Z,7.35
2022-10-22T06:54:32.201Z,6.15
2022-10-22T06:56:58.756Z,7.43
2022-10-22T06:59:25.388Z,6.45
2022-10-22T07:01:52.165Z,6.03
2022-10-22T07:04:18.899Z,6.97
2022-10-22T07:06:45.431Z,6.80
2022-10-22T07:09:12.160Z,6.82
2022-10-22T07:11:44.125Z,8.65
2022-10-22T07:14:11.157Z,8.25
2022-10-22T07:16:37.956Z,7.63
2022-10-22T07:19:04.948Z,7.20
2022-10-22T07:21:32.038Z,8.27
2022-10-22T07:23:59.337Z,8.02
2022-10-22T07:26:28.483Z,8.02
2022-10-22T07:28:55.053Z,7.72
2022-10-22T07:31:21.675Z,7.40
2022-10-22T07:33:48.285Z,7.45
2022-10-22T07:36:19.478Z,9.90
2022-10-22T07:38:47.875Z,8.57
2022-10-22T07:41:15.941Z,9.85
2022-10-22T07:43:42.852Z,9.07
2022-10-22T07:46:09.532Z,9.50
2022-10-22T07:48:36.639Z,8.02
2022-10-22T07:51:03.786Z,16.70
2022-10-22T07:53:30.536Z,11.18
2022-10-22T07:55:57.316Z,9.40
2022-10-22T07:58:24.231Z,8.60
2022-10-22T08:00:51.256Z,8.18
2022-10-22T08:03:18.545Z,9.10
2022-10-22T08:05:45.587Z,11.23
2022-10-22T08:08:13.696Z,9.43
2022-10-22T08:10:40.422Z,7.93
2022-10-22T08:13:08.087Z,13.05
2022-10-22T08:15:35.167Z,8.37
2022-10-22T08:18:01.858Z,8.95
2022-10-22T08:20:28.481Z,9.20
2022-10-22T08:22:55.107Z,8.93
2022-10-22T08:25:21.676Z,9.73
2022-10-22T08:27:48.349Z,9.18
2022-10-22T08:30:15.065Z,7.43
2022-10-22T08:32:41.924Z,15.43
2022-10-22T08:35:08.715Z,8.73
2022-10-22T08:37:36.011Z,9.45
2022-10-22T08:40:03.943Z,8.57
2022-10-22T08:42:36.465Z,8.88
2022-10-22T08:45:41.587Z,8.02
2022-10-22T08:48:23.225Z,9.38
2022-10-22T08:50:52.210Z,8.30
2022-10-22T08:53:21.963Z,8.13
2022-10-22T08:55:50.063Z,8.90
2022-10-22T08:59:05.949Z,7.30
2022-10-22T09:01:38.872Z,10.55
2022-10-22T09:04:17.164Z,12.15
2022-10-22T09:06:44.492Z,34.70
2022-10-22T09:09:18.378Z,11.55
2022-10-22T09:11:50.943Z,7.82
2022-10-22T09:14:21.017Z,9.10
2022-10-22T09:17:03.144Z,13.10
2022-10-22T09:19:38.684Z,12.75
2022-10-22T09:22:24.886Z,9.88
2022-10-22T09:24:57.501Z,12.27
2022-10-22T09:27:30.657Z,9.48
2022-10-22T09:29:57.472Z,5.05
2022-10-22T09:32:24.117Z,8.15
2022-10-22T09:34:50.883Z,6.07
2022-10-22T09:37:19.996Z,7.13
2022-10-22T09:39:49.397Z,11.73
2022-10-22T09:42:17.919Z,9.95
2022-10-22T09:47:43.216Z,11.38
2022-10-22T09:50:35.411Z,22.80
2022-10-22T09:53:25.762Z,8.55
2022-10-22T09:56:00.294Z,13.90
2022-10-22T09:58:28.149Z,5.50
2022-10-22T10:01:00.189Z,9.38
2022-10-22T10:03:28.973Z,11.15
2022-10-22T10:06:01.576Z,16.15
2022-10-22T10:08:31.646Z,12.23
2022-10-22T10:11:37.908Z,13.55
2022-10-22T10:14:20.403Z,12.48
2022-10-22T10:16:58.217Z,8.27
2022-10-22T10:19:44.879Z,12.25
2022-10-22T10:22:17.795Z,13.02
2022-10-22T10:25:03.210Z,10.50
2022-10-22T10:27:47.032Z,10.10
2022-10-22T10:30:17.389Z,12.77
2022-10-22T10:33:08.611Z,8.73
2022-10-22T10:35:45.680Z,12.55
2022-10-22T10:38:29.578Z,12.73
2022-10-22T10:41:31.685Z,8.27
2022-10-22T10:44:04.376Z,6.55
2022-10-22T10:46:42.917Z,8.25
2022-10-22T10:49:11.492Z,10.23
2022-10-22T10:54:14.789Z,13.80
2022-10-22T10:56:45.948Z,6.30
2022-10-22T10:59:37.389Z,8.88
2022-10-22T11:02:03.992Z,7.30
2022-10-22T11:04:49.031Z,12.95
2022-10-22T11:07:33.471Z,11.85
2022-10-22T11:10:08.989Z,10.02
2022-10-22T11:12:42.829Z,23.17
2022-10-22T11:15:29.523Z,8.57
2022-10-22T11:18:29.709Z,8.77
2022-10-22T11:21:27.574Z,9.40
2022-10-22T11:24:03.816Z,9.55
2022-10-22T11:26:54.196Z,12.25
2022-10-22T11:29:27.197Z,6.50
2022-10-22T11:31:56.451Z,6.15
2022-10-22T11:34:35.879Z,7.70
2022-10-22T11:37:04.328Z,4.53
2022-10-22T11:39:53.825Z,8.55
2022-10-22T11:42:24.196Z,7.20
2022-10-22T11:45:03.894Z,6.32
2022-10-22T11:47:38.638Z,7.05
2022-10-22T11:50:25.540Z,6.63
2022-10-22T11:53:08.482Z,13.57
2022-10-22T11:55:45.678Z,9.60
2022-10-22T11:58:34.389Z,10.77
2022-10-22T12:01:10.237Z,7.95
2022-10-22T12:03:43.862Z,8.10
2022-10-22T12:06:13.330Z,8.30
2022-10-22T12:08:53.501Z,13.50
2022-10-22T12:11:20.065Z,7.03
2022-10-22T12:14:00.379Z,9.85
2022-10-22T12:16:55.731Z,6.22
2022-10-22T12:19:23.373Z,11.68
2022-10-22T12:21:55.616Z,17.10
2022-10-22T12:24:24.619Z,9.55
2022-10-22T12:26:52.734Z,5.28
2022-10-22T12:29:23.734Z,6.32
2022-10-22T12:31:50.492Z,10.45
2022-10-22T12:34:19.281Z,9.82
2022-10-22T12:36:47.867Z,5.57
2022-10-22T12:41:46.130Z,9.15
2022-10-22T12:44:15.337Z,12.27
2022-10-22T12:46:43.172Z,5.68
2022-10-22T12:49:39.852Z,4.07
2022-10-22T12:52:10.966Z,6.90
2022-10-22T12:54:40.197Z,9.40
2022-10-22T12:57:11.504Z,5.30
2022-10-22T12:59:39.249Z,5.80
2022-10-22T13:02:26.980Z,9.48
2022-10-22T13:05:16.164Z,8.50
2022-10-22T13:07:48.191Z,3.97
2022-10-22T13:10:24.792Z,6.55
2022-10-22T13:12:55.139Z,6.28
2022-10-22T13:15:42.442Z,8.35
2022-10-22T13:18:19.132Z,4.68
2022-10-22T13:20:57.425Z,5.65
2022-10-22T13:23:26.776Z,7.97
2022-10-22T13:26:14.462Z,7.32
2022-10-22T13:28:41.921Z,6.60
2022-10-22T13:31:18.519Z,12.80
2022-10-22T13:33:47.782Z,9.68
2022-10-22T13:36:15.882Z,9.77
2022-10-22T13:38:43.243Z,5.40
2022-10-22T13:41:33.198Z,6.50
2022-10-22T13:44:00.029Z,7.07
2022-10-22T13:46:27.211Z,3.38
2022-10-22T13:48:57.220Z,4.15
2022-10-22T13:51:30.325Z,7.18
2022-10-22T13:53:57.638Z,13.13
2022-10-22T13:56:24.532Z,5.38
2022-10-22T13:58:51.392Z,10.55
2022-10-22T14:01:25.871Z,6.68
2022-10-22T14:03:56.091Z,4.78
2022-10-22T14:06:23.093Z,8.35
2022-10-22T14:08:58.576Z,7.78
2022-10-22T14:11:31.421Z,8.10
2022-10-22T14:13:59.162Z,5.75
2022-10-22T14:16:28.675Z,7.40
2022-10-22T14:18:56.042Z,15.27
2022-10-22T14:21:22.811Z,8.45
2022-10-22T14:23:51.138Z,7.00
2022-10-22T14:26:28.187Z,6.28
2022-10-22T14:29:11.428Z,6.25
2022-10-22T14:34:07.291Z,3.92
2022-10-22T14:36:33.853Z,4.75
2022-10-22T14:39:00.407Z,6.13
2022-10-22T14:41:28.286Z,11.07
2022-10-22T14:43:57.848Z,4.47
2022-10-22T14:46:24.556Z,10.85
2022-10-22T14:48:51.129Z,8.15
2022-10-22T14:51:20.098Z,7.90
2022-10-22T14:53:47.052Z,7.78
2022-10-22T14:56:16.566Z,5.43
2022-10-22T14:58:43.303Z,7.00
2022-10-22T15:01:09.888Z,7.90
2022-10-22T15:03:36.613Z,12.20
2022-10-22T15:06:03.526Z,7.35
2022-10-22T15:08:30.444Z,8.07
2022-10-22T15:11:01.236Z,7.70
2022-10-22T15:13:29.249Z,7.70
2022-10-22T15:15:57.264Z,6.85
2022-10-22T15:18:24.699Z,13.07
2022-10-22T15:21:15.475Z,5.13
2022-10-22T15:23:42.310Z,8.50
2022-10-22T15:26:09.888Z,8.13
2022-10-22T15:28:38.244Z,9.07
2022-10-22T15:31:05.128Z,11.77
2022-10-22T15:33:31.709Z,10.75
2022-10-22T15:35:58.384Z,9.95
2022-10-22T15:41:05.528Z,8.40
2022-10-22T15:43:33.274Z,5.65
2022-10-22T15:46:15.571Z,8.23
2022-10-22T15:48:42.621Z,9.45
2022-10-22T15:51:14.339Z,9.45
2022-10-22T15:53:41.229Z,7.05
2022-10-22T15:56:09.043Z,4.40
2022-10-22T15:58:35.705Z,5.95
2022-10-22T16:01:13.045Z,4.55
2022-10-22T16:03:40.549Z,6.88
2022-10-22T16:06:09.164Z,6.38
2022-10-22T16:08:36.802Z,13.90
2022-10-22T16:11:03.741Z,7.53
2022-10-22T16:13:30.982Z,6.78
2022-10-22T16:15:57.593Z,8.43
2022-10-22T16:18:24.179Z,12.88
2022-10-22T16:20:50.842Z,9.50
2022-10-22T16:23:19.058Z,12.30
2022-10-22T16:25:46.441Z,7.15
2022-10-22T16:28:13.604Z,6.28
2022-10-22T16:30:40.372Z,5.30
2022-10-22T16:33:07.947Z,3.92
2022-10-22T16:35:34.533Z,9.55
2022-10-22T16:38:01.147Z,5.05
2022-10-22T16:40:29.181Z,6.70
2022-10-22T16:42:55.715Z,7.43
2022-10-22T16:45:22.270Z,7.95
2022-10-22T16:47:49.273Z,9.13
2022-10-22T16:50:15.980Z,4.43
2022-10-22T16:52:42.561Z,4.13
2022-10-22T16:55:09.489Z,10.43
2022-10-22T16:57:36.100Z,4.28
2022-10-22T17:00:05.110Z,5.82
2022-10-22T17:02:31.736Z,4.35
2022-10-22T17:04:58.299Z,3.65
2022-10-22T17:07:24.828Z,7.18
2022-10-22T17:09:51.453Z,3.70
2022-10-22T17:12:18.107Z,7.18
2022-10-22T17:14:44.660Z,4.38
2022-10-22T17:17:11.280Z,4.85
2022-10-22T17:19:38.904Z,8.60
2022-10-22T17:22:05.576Z,13.50
2022-10-22T17:24:32.157Z,11.10
2022-10-22T17:26:58.857Z,13.77
2022-10-22T17:29:25.539Z,7.82
2022-10-22T17:31:52.656Z,6.78
2022-10-22T17:34:19.250Z,8.68
2022-10-22T17:36:45.859Z,4.13
2022-10-22T17:39:17.201Z,11.18
2022-10-22T17:41:43.784Z,6.75
2022-10-22T17:44:12.293Z,10.23
2022-10-22T17:49:10.161Z,7.80
2022-10-22T17:51:37.859Z,6.10
2022-10-22T17:54:07.376Z,9.07
2022-10-22T17:56:37.508Z,6.40
2022-10-22T17:59:04.390Z,11.00
2022-10-22T18:01:33.892Z,9.02
2022-10-22T18:04:03.429Z,7.82
2022-10-22T18:06:30.746Z,7.65
2022-10-22T18:08:57.750Z,9.20
2022-10-22T18:11:27.282Z,4.90
2022-10-22T18:13:56.195Z,9.52
2022-10-22T18:16:23.442Z,7.10
2022-10-22T18:18:55.546Z,9.38
2022-10-22T18:21:23.992Z,7.82
2022-10-22T18:23:50.680Z,13.68
2022-10-22T18:26:20.277Z,20.08
2022-10-22T18:28:49.568Z,18.70
2022-10-22T18:31:19.279Z,8.20
2022-10-22T18:33:46.323Z,9.60
2022-10-22T18:36:15.822Z,9.65
2022-10-22T18:38:42.365Z,12.43
2022-10-22T18:41:10.353Z,7.90
2022-10-22T18:43:36.988Z,7.43
2022-10-22T18:46:06.553Z,9.85
2022-10-22T18:48:33.133Z,7.70
2022-10-22T18:51:02.342Z,26.73
2022-10-22T18:53:28.961Z,23.60
2022-10-22T18:55:55.575Z,11.18
2022-10-22T18:58:22.111Z,8.57
2022-10-22T19:00:50.204Z,9.13
2022-10-22T19:03:17.279Z,7.03
2022-10-22T19:05:46.203Z,20.35
2022-10-22T19:08:12.831Z,6.32
2022-10-22T19:10:39.440Z,7.20
2022-10-22T19:13:06.144Z,4.70
2022-10-22T19:15:32.731Z,8.35
2022-10-22T19:17:59.284Z,7.22
2022-10-22T19:20:25.927Z,7.22
2022-10-22T19:22:53.482Z,7.53
2022-10-22T19:25:20.072Z,6.53
2022-10-22T19:27:47.534Z,7.72
2022-10-22T19:30:14.618Z,6.97
2022-10-22T19:32:41.365Z,12.40
2022-10-22T19:35:08.967Z,6.85
2022-10-22T19:37:37.109Z,9.63
2022-10-22T19:40:06.363Z,10.13
2022-10-22T19:42:32.997Z,5.60
2022-10-22T19:44:59.555Z,6.40
2022-10-22T19:47:26.118Z,8.32
2022-10-22T19:49:52.736Z,6.10
2022-10-22T19:52:19.595Z,4.32
2022-10-22T19:54:46.308Z,4.30
2022-10-22T19:57:18.397Z,4.85
2022-10-22T19:59:45.824Z,5.80
2022-10-22T20:02:15.699Z,4.60
2022-10-22T20:04:44.705Z,5.60
2022-10-22T20:07:13.255Z,14.77
2022-10-22T20:09:39.908Z,11.68
2022-10-22T20:12:06.657Z,11.52
2022-10-22T20:14:33.978Z,8.85
2022-10-22T20:17:00.733Z,9.98
2022-10-22T20:19:29.244Z,19.60
2022-10-22T20:21:56.586Z,33.30
2022-10-22T20:24:23.236Z,68.38
2022-10-22T20:26:49.796Z,29.60
2022-10-22T20:29:19.028Z,10.10
2022-10-22T20:31:46.359Z,345.15
2022-10-22T20:34:12.981Z,381.67
2022-10-22T20:36:40.287Z,134.63
2022-10-22T20:39:10.772Z,43.20
2022-10-22T20:41:39.232Z,14.80
2022-10-22T20:44:06.917Z,14.55
2022-10-22T20:46:34.303Z,20.40
2022-10-22T20:49:06.205Z,16.77
2022-10-22T20:51:33.215Z,17.55
2022-10-22T20:53:59.760Z,19.92
2022-10-22T20:56:27.277Z,10.68
2022-10-22T20:59:04.134Z,9.93
2022-10-22T21:01:46.633Z,9.10
2022-10-22T21:04:13.710Z,20.02
2022-10-22T21:06:42.891Z,9.00
2022-10-22T21:09:11.426Z,9.55
2022-10-22T21:14:06.230Z,8.35
2022-10-22T21:16:33.319Z,7.47
2022-10-22T21:19:00.188Z,10.18
2022-10-22T21:21:27.040Z,9.55
2022-10-22T21:23:53.698Z,9.88
2022-10-22T21:26:21.062Z,5.93
2022-10-22T21:28:48.097Z,6.80
2022-10-22T21:31:21.525Z,7.25
2022-10-22T21:33:49.969Z,6.78
2022-10-22T21:36:21.626Z,6.80
2022-10-22T21:38:50.587Z,5.45
2022-10-22T21:41:18.199Z,6.50
2022-10-22T21:43:45.459Z,6.55
2022-10-22T21:46:17.377Z,6.10
2022-10-22T21:48:44.581Z,6.97
2022-10-22T21:51:16.438Z,4.93
2022-10-22T21:53:43.242Z,5.47
2022-10-22T21:56:15.351Z,7.10
2022-10-22T21:58:41.917Z,7.32
2022-10-22T22:01:08.537Z,9.23
2022-10-22T22:03:35.110Z,7.60
2022-10-22T22:06:04.160Z,10.93
2022-10-22T22:08:31.394Z,8.57
2022-10-22T22:11:06.836Z,10.27
2022-10-22T22:13:33.848Z,9.43
2022-10-22T22:16:08.779Z,8.70
2022-10-22T22:18:36.043Z,10.20
2022-10-22T22:21:07.763Z,11.40
2022-10-22T22:23:37.386Z,12.52
2022-10-22T22:26:05.348Z,12.32
2022-10-22T22:28:32.732Z,9.95
2022-10-22T22:30:59.415Z,10.98
2022-10-22T22:33:26.719Z,10.50
2022-10-22T22:35:53.725Z,8.00
2022-10-22T22:38:20.252Z,9.20
2022-10-22T22:40:46.828Z,6.60
2022-10-22T22:43:13.422Z,7.57
2022-10-22T22:45:40.849Z,9.32
2022-10-22T22:48:07.878Z,11.05
2022-10-22T22:50:36.419Z,9.75
2022-10-22T22:55:31.969Z,10.07
2022-10-22T22:57:58.880Z,8.52
2022-10-22T23:00:25.556Z,11.77
2022-10-22T23:02:56.040Z,9.38
2022-10-22T23:05:22.799Z,9.00
2022-10-22T23:07:49.409Z,8.25
2022-10-22T23:10:16.096Z,9.00
2022-10-22T23:12:42.847Z,7.22
2022-10-22T23:15:10.022Z,7.05
2022-10-22T23:20:08.642Z,8.65
2022-10-22T23:22:35.324Z,7.18
2022-10-22T23:25:01.938Z,7.75
2022-10-22T23:27:28.502Z,7.60
2022-10-22T23:29:55.072Z,7.80
2022-10-22T23:32:21.620Z,6.78
2022-10-22T23:34:48.192Z,6.82
2022-10-22T23:37:14.719Z,8.60
2022-10-22T23:39:41.321Z,7.32
2022-10-22T23:42:07.945Z,7.75
2022-10-22T23:44:34.529Z,6.93
2022-10-22T23:47:01.131Z,7.35
2022-10-22T23:49:27.732Z,8.23
2022-10-22T23:51:54.283Z,7.95
2022-10-22T23:54:20.892Z,6.30
2022-10-22T23:56:47.546Z,6.10
